createdAt,value
2018-02-12T00:00:25.655Z,948.85
2018-02-12T00:01:25.635Z,948.90
2018-02-12T00:03:19.031Z,948.89
2018-02-12T00:04:19.015Z,948.89
2018-02-12T00:06:12.454Z,948.90
2018-02-12T00:07:12.409Z,948.96
2018-02-12T00:09:05.773Z,948.98
2018-02-12T00:10:05.771Z,949.00
2018-02-12T00:11:59.191Z,949.01
2018-02-12T00:12:59.159Z,949.01
2018-02-12T00:14:52.533Z,949.04
2018-02-12T00:15:52.534Z,949.06
2018-02-12T00:17:45.934Z,949.02
2018-02-12T00:18:45.913Z,949.03
2018-02-12T00:20:39.292Z,948.98
2018-02-12T00:21:39.289Z,949.03
2018-02-12T00:23:32.688Z,949.02
2018-02-12T00:24:32.668Z,949.02
2018-02-12T00:26:26.050Z,949.03
2018-02-12T00:27:26.047Z,949.04
2018-02-12T00:29:19.447Z,949.03
2018-02-12T00:30:19.423Z,949.04
2018-02-12T00:32:12.803Z,949.04
2018-02-12T00:33:12.799Z,949.05
2018-02-12T00:35:06.212Z,949.05
2018-02-12T00:36:06.185Z,949.08
2018-02-12T00:37:59.565Z,949.04
2018-02-12T00:38:59.573Z,948.99
2018-02-12T00:40:52.965Z,949.01
2018-02-12T00:41:52.942Z,948.97
2018-02-12T00:43:46.382Z,948.95
2018-02-12T00:44:46.319Z,948.92
2018-02-12T00:46:39.699Z,948.94
2018-02-12T00:47:39.697Z,948.92
2018-02-12T00:49:33.102Z,948.91
2018-02-12T00:50:33.083Z,948.94
2018-02-12T00:52:26.462Z,948.89
2018-02-12T00:53:26.452Z,948.92
2018-02-12T00:55:19.852Z,948.89
2018-02-12T00:56:19.830Z,948.86
2018-02-12T00:58:13.221Z,948.89
2018-02-12T00:59:13.221Z,948.94
2018-02-12T01:01:06.615Z,948.95
2018-02-12T01:02:06.595Z,948.95
2018-02-12T01:03:59.973Z,948.97
2018-02-12T01:04:59.976Z,948.98
2018-02-12T01:06:53.368Z,948.96
2018-02-12T01:07:53.350Z,948.98
2018-02-12T01:09:46.726Z,948.89
2018-02-12T01:10:46.727Z,948.91
2018-02-12T01:12:40.126Z,948.96
2018-02-12T01:13:40.104Z,948.87
2018-02-12T01:15:33.481Z,948.88
2018-02-12T01:16:33.483Z,948.90
2018-02-12T01:18:26.880Z,948.91
2018-02-12T01:19:26.868Z,948.94
2018-02-12T01:21:20.248Z,948.95
2018-02-12T01:22:20.248Z,949.00
2018-02-12T01:24:14.643Z,948.97
2018-02-12T01:25:14.623Z,948.91
2018-02-12T01:27:08.037Z,948.91
2018-02-12T01:28:08.001Z,948.94
2018-02-12T01:30:01.378Z,948.97
2018-02-12T01:31:01.376Z,948.97
2018-02-12T01:32:54.781Z,948.94
2018-02-12T01:33:54.756Z,948.97
2018-02-12T01:35:48.132Z,948.99
2018-02-12T01:36:48.134Z,948.96
2018-02-12T01:38:41.538Z,948.98
2018-02-12T01:39:41.510Z,948.93
2018-02-12T01:41:34.891Z,948.97
2018-02-12T01:42:34.889Z,948.98
2018-02-12T01:44:28.295Z,948.98
2018-02-12T01:45:28.271Z,948.93
2018-02-12T01:47:21.648Z,948.94
2018-02-12T01:48:21.644Z,948.91
2018-02-12T01:50:15.042Z,948.87
2018-02-12T01:51:15.023Z,948.84
2018-02-12T01:53:08.405Z,948.83
2018-02-12T01:54:08.397Z,948.84
2018-02-12T01:56:01.796Z,948.76
2018-02-12T01:57:01.779Z,948.79
2018-02-12T01:58:55.154Z,948.72
2018-02-12T01:59:55.155Z,948.71
2018-02-12T02:01:48.551Z,948.66
2018-02-12T02:02:48.530Z,948.69
2018-02-12T02:04:41.909Z,948.68
2018-02-12T02:05:41.909Z,948.70
2018-02-12T02:07:35.314Z,948.70
2018-02-12T02:08:35.294Z,948.77
2018-02-12T02:10:28.710Z,948.72
2018-02-12T02:11:28.669Z,948.74
2018-02-12T02:13:22.050Z,948.72
2018-02-12T02:14:22.048Z,948.72
2018-02-12T02:16:15.456Z,948.81
2018-02-12T02:17:15.435Z,948.83
2018-02-12T02:19:08.816Z,948.85
2018-02-12T02:20:08.813Z,948.90
2018-02-12T02:22:02.209Z,948.85
2018-02-12T02:23:02.193Z,948.91
2018-02-12T02:24:55.565Z,948.88
2018-02-12T02:25:55.568Z,948.88
2018-02-12T02:27:48.967Z,948.90
2018-02-12T02:28:48.943Z,948.88
2018-02-12T02:30:42.323Z,948.91
2018-02-12T02:31:42.323Z,948.89
2018-02-12T02:33:35.718Z,948.90
2018-02-12T02:34:35.701Z,948.91
2018-02-12T02:36:29.079Z,948.95
2018-02-12T02:37:29.079Z,948.93
2018-02-12T02:39:22.474Z,948.98
2018-02-12T02:40:22.458Z,948.98
2018-02-12T02:42:15.836Z,948.92
2018-02-12T02:43:15.834Z,948.91
2018-02-12T02:45:09.231Z,948.92
2018-02-12T02:46:09.210Z,948.90
2018-02-12T02:48:02.588Z,948.93
2018-02-12T02:49:02.590Z,948.92
2018-02-12T02:50:55.985Z,948.92
2018-02-12T02:51:55.985Z,948.93
2018-02-12T02:53:49.379Z,948.97
2018-02-12T02:54:49.349Z,948.97
2018-02-12T02:56:42.741Z,948.98
2018-02-12T02:57:42.722Z,949.02
2018-02-12T02:59:36.132Z,949.02
2018-02-12T03:00:36.108Z,948.98
2018-02-12T03:02:29.484Z,948.91
2018-02-12T03:03:29.491Z,948.91
2018-02-12T03:05:22.880Z,948.92
2018-02-12T03:06:22.858Z,948.92
2018-02-12T03:08:16.264Z,948.93
2018-02-12T03:09:16.263Z,948.95
2018-02-12T03:11:09.671Z,948.97
2018-02-12T03:12:09.650Z,948.98
2018-02-12T03:14:03.032Z,948.95
2018-02-12T03:15:03.031Z,948.95
2018-02-12T03:16:56.426Z,948.99
2018-02-12T03:17:56.409Z,949.00
2018-02-12T03:19:49.785Z,949.00
2018-02-12T03:20:49.784Z,948.96
2018-02-12T03:22:43.181Z,948.96
2018-02-12T03:23:43.162Z,948.98
2018-02-12T03:25:36.550Z,948.94
2018-02-12T03:26:36.551Z,948.92
2018-02-12T03:28:29.944Z,948.84
2018-02-12T03:29:29.925Z,948.83
2018-02-12T03:31:23.302Z,948.88
2018-02-12T03:32:23.308Z,948.94
2018-02-12T03:34:16.699Z,948.91
2018-02-12T03:35:16.684Z,948.91
2018-02-12T03:37:10.059Z,948.94
2018-02-12T03:38:10.057Z,948.98
2018-02-12T03:40:03.457Z,949.03
2018-02-12T03:41:03.442Z,949.05
2018-02-12T03:42:56.813Z,949.06
2018-02-12T03:43:56.815Z,949.07
2018-02-12T03:45:50.218Z,949.10
2018-02-12T03:46:50.190Z,949.07
2018-02-12T03:48:43.568Z,949.03
2018-02-12T03:49:43.567Z,949.05
2018-02-12T03:51:36.961Z,949.09
2018-02-12T03:52:36.945Z,949.09
2018-02-12T03:54:30.340Z,949.09
2018-02-12T03:55:30.327Z,949.14
2018-02-12T03:57:23.697Z,949.11
2018-02-12T03:58:23.697Z,949.09
2018-02-12T04:00:17.099Z,949.10
2018-02-12T04:01:17.074Z,949.12
2018-02-12T04:03:10.453Z,949.15
2018-02-12T04:04:10.450Z,949.16
2018-02-12T04:06:03.849Z,949.19
2018-02-12T04:07:03.829Z,949.14
2018-02-12T04:08:57.213Z,949.19
2018-02-12T04:09:57.216Z,949.17
2018-02-12T04:11:50.609Z,949.18
2018-02-12T04:12:50.589Z,949.16
2018-02-12T04:14:43.965Z,949.15
2018-02-12T04:15:43.964Z,949.11
2018-02-12T04:17:37.360Z,949.14
2018-02-12T04:18:37.347Z,949.20
2018-02-12T04:20:30.728Z,949.17
2018-02-12T04:21:30.727Z,949.23
2018-02-12T04:23:24.131Z,949.22
2018-02-12T04:24:24.117Z,949.27
2018-02-12T04:26:17.487Z,949.30
2018-02-12T04:27:17.490Z,949.37
2018-02-12T04:29:10.881Z,949.42
2018-02-12T04:30:10.862Z,949.41
2018-02-12T04:32:04.292Z,949.43
2018-02-12T04:33:04.263Z,949.45
2018-02-12T04:34:57.651Z,949.39
2018-02-12T04:35:57.649Z,949.40
2018-02-12T04:37:51.044Z,949.34
2018-02-12T04:38:51.033Z,949.29
2018-02-12T04:40:44.400Z,949.30
2018-02-12T04:41:44.401Z,949.36
2018-02-12T04:43:37.799Z,949.36
2018-02-12T04:44:37.779Z,949.40
2018-02-12T04:46:31.154Z,949.39
2018-02-12T04:47:31.155Z,949.44
2018-02-12T04:49:24.547Z,949.46
2018-02-12T04:50:24.528Z,949.43
2018-02-12T04:52:17.905Z,949.53
2018-02-12T04:53:17.961Z,949.52
2018-02-12T04:55:11.371Z,949.55
2018-02-12T04:56:11.350Z,949.50
2018-02-12T04:58:05.693Z,949.53
2018-02-12T04:59:05.710Z,949.58
2018-02-12T05:00:59.111Z,949.59
2018-02-12T05:01:59.108Z,949.56
2018-02-12T05:03:53.536Z,949.56
2018-02-12T05:04:53.494Z,949.59
2018-02-12T05:06:46.844Z,949.64
2018-02-12T05:07:46.804Z,949.63
2018-02-12T05:09:40.268Z,949.62
2018-02-12T05:10:40.208Z,949.65
2018-02-12T05:12:33.600Z,949.55
2018-02-12T05:13:33.580Z,949.51
2018-02-12T05:15:26.980Z,949.55
2018-02-12T05:16:26.996Z,949.57
2018-02-12T05:18:20.341Z,949.54
2018-02-12T05:19:20.353Z,949.52
2018-02-12T05:21:13.764Z,949.57
2018-02-12T05:22:13.743Z,949.57
2018-02-12T05:24:07.127Z,949.68
2018-02-12T05:25:07.113Z,949.68
2018-02-12T05:27:00.498Z,949.70
2018-02-12T05:28:00.525Z,949.74
2018-02-12T05:29:53.868Z,949.78
2018-02-12T05:30:53.867Z,949.77
2018-02-12T05:32:47.278Z,949.82
2018-02-12T05:33:47.272Z,949.83
2018-02-12T05:35:40.669Z,949.84
2018-02-12T05:36:40.665Z,949.86
2018-02-12T05:38:34.042Z,949.91
2018-02-12T05:39:34.284Z,949.91
2018-02-12T05:41:27.395Z,949.93
2018-02-12T05:42:27.416Z,949.97
2018-02-12T05:44:20.816Z,950.02
2018-02-12T05:45:20.809Z,950.02
2018-02-12T05:47:14.233Z,950.08
2018-02-12T05:48:14.754Z,950.09
2018-02-12T05:50:08.599Z,950.09
2018-02-12T05:51:08.609Z,950.10
2018-02-12T05:53:01.974Z,950.11
2018-02-12T05:54:01.958Z,950.12
2018-02-12T05:55:55.811Z,950.15
2018-02-12T05:56:55.382Z,950.22
2018-02-12T05:58:48.770Z,950.18
2018-02-12T05:59:48.730Z,950.19
2018-02-12T06:01:42.119Z,950.19
2018-02-12T06:02:42.134Z,950.22
2018-02-12T06:04:35.557Z,950.22
2018-02-12T06:05:35.538Z,950.29
2018-02-12T06:07:28.909Z,950.30
2018-02-12T06:08:28.946Z,950.30
2018-02-12T06:10:22.364Z,950.35
2018-02-12T06:11:22.264Z,950.35
2018-02-12T06:13:16.917Z,950.40
2018-02-12T06:14:16.686Z,950.40
2018-02-12T06:16:10.111Z,950.45
2018-02-12T06:17:10.070Z,950.47
2018-02-12T06:19:04.416Z,950.53
2018-02-12T06:20:04.464Z,950.58
2018-02-12T06:21:58.718Z,950.62
2018-02-12T06:22:58.665Z,950.67
2018-02-12T06:24:52.054Z,950.73
2018-02-12T06:25:52.085Z,950.76
2018-02-12T06:27:45.443Z,950.78
2018-02-12T06:28:45.449Z,950.82
2018-02-12T06:30:38.947Z,950.84
2018-02-12T06:31:38.831Z,950.86
2018-02-12T06:33:32.166Z,950.89
2018-02-12T06:34:32.196Z,950.89
2018-02-12T06:36:25.656Z,950.94
2018-02-12T06:37:25.641Z,950.96
2018-02-12T06:39:19.938Z,950.99
2018-02-12T06:40:19.948Z,951.04
2018-02-12T06:42:13.374Z,951.07
2018-02-12T06:43:13.374Z,951.10
2018-02-12T06:45:06.726Z,951.09
2018-02-12T06:46:06.754Z,951.10
2018-02-12T06:48:00.154Z,951.11
2018-02-12T06:49:00.080Z,951.13
2018-02-12T06:50:53.485Z,951.13
2018-02-12T06:51:53.458Z,951.16
2018-02-12T06:53:46.860Z,951.18
2018-02-12T06:54:46.852Z,951.20
2018-02-12T06:56:40.243Z,951.19
2018-02-12T06:57:40.251Z,951.24
2018-02-12T06:59:33.645Z,951.23
2018-02-12T07:00:33.618Z,951.20
2018-02-12T07:02:27.050Z,951.24
2018-02-12T07:03:27.001Z,951.25
2018-02-12T07:05:20.388Z,951.25
2018-02-12T07:06:20.398Z,951.29
2018-02-12T07:08:13.769Z,951.28
2018-02-12T07:09:13.787Z,951.33
2018-02-12T07:11:07.123Z,951.39
2018-02-12T07:12:07.133Z,951.42
2018-02-12T07:14:00.526Z,951.42
2018-02-12T07:15:00.537Z,951.47
2018-02-12T07:16:53.927Z,951.51
2018-02-12T07:17:53.923Z,951.47
2018-02-12T07:19:47.358Z,951.46
2018-02-12T07:20:47.317Z,951.56
2018-02-12T07:22:40.666Z,951.59
2018-02-12T07:23:40.672Z,951.59
2018-02-12T07:25:34.103Z,951.58
2018-02-12T07:26:34.073Z,951.59
2018-02-12T07:28:27.439Z,951.60
2018-02-12T07:29:27.439Z,951.65
2018-02-12T07:31:20.838Z,951.62
2018-02-12T07:32:20.820Z,951.66
2018-02-12T07:34:14.198Z,951.69
2018-02-12T07:35:14.207Z,951.72
2018-02-12T07:37:07.625Z,951.72
2018-02-12T07:38:07.578Z,951.75
2018-02-12T07:40:00.988Z,951.78
2018-02-12T07:41:00.969Z,951.84
2018-02-12T07:42:54.340Z,951.82
2018-02-12T07:43:54.338Z,951.86
2018-02-12T07:45:47.738Z,951.88
2018-02-12T07:46:47.719Z,951.87
2018-02-12T07:48:41.098Z,951.93
2018-02-12T07:49:41.099Z,951.98
2018-02-12T07:51:34.507Z,952.02
2018-02-12T07:52:34.488Z,952.06
2018-02-12T07:54:27.874Z,952.10
2018-02-12T07:55:27.877Z,952.14
2018-02-12T07:57:21.271Z,952.11
2018-02-12T07:58:21.253Z,952.18
2018-02-12T08:00:14.641Z,952.21
2018-02-12T08:01:14.641Z,952.20
2018-02-12T08:03:08.037Z,952.22
2018-02-12T08:04:08.017Z,952.24
2018-02-12T08:06:01.406Z,952.22
2018-02-12T08:07:01.405Z,952.25
2018-02-12T08:08:54.810Z,952.27
2018-02-12T08:09:54.793Z,952.34
2018-02-12T08:11:48.230Z,952.39
2018-02-12T08:12:48.169Z,952.43
2018-02-12T08:14:41.550Z,952.46
2018-02-12T08:15:41.550Z,952.42
2018-02-12T08:17:34.946Z,952.46
2018-02-12T08:18:34.927Z,952.46
2018-02-12T08:20:27.815Z,952.45
2018-02-12T08:21:27.813Z,952.44
2018-02-12T08:23:21.209Z,952.49
2018-02-12T08:24:21.193Z,952.52
2018-02-12T08:26:14.570Z,952.59
2018-02-12T08:27:14.567Z,952.58
2018-02-12T08:29:08.967Z,952.65
2018-02-12T08:30:08.946Z,952.65
2018-02-12T08:32:02.333Z,952.76
2018-02-12T08:33:02.334Z,952.77
2018-02-12T08:34:55.729Z,952.85
2018-02-12T08:35:55.712Z,952.86
2018-02-12T08:37:49.089Z,952.92
2018-02-12T08:38:49.090Z,952.97
2018-02-12T08:40:42.485Z,952.98
2018-02-12T08:41:42.466Z,953.00
2018-02-12T08:43:35.866Z,953.01
2018-02-12T08:44:35.843Z,953.05
2018-02-12T08:46:29.267Z,953.08
2018-02-12T08:47:29.263Z,953.13
2018-02-12T08:49:22.676Z,953.14
2018-02-12T08:50:22.654Z,953.17
2018-02-12T08:52:16.032Z,953.14
2018-02-12T08:53:16.030Z,953.19
2018-02-12T08:55:09.430Z,953.13
2018-02-12T08:56:09.409Z,953.17
2018-02-12T08:58:02.797Z,953.17
2018-02-12T08:59:02.798Z,953.14
2018-02-12T09:00:56.194Z,953.11
2018-02-12T09:01:56.178Z,953.09
2018-02-12T09:03:49.554Z,953.08
2018-02-12T09:04:49.558Z,953.08
2018-02-12T09:06:42.965Z,953.15
2018-02-12T09:07:42.950Z,953.15
2018-02-12T09:09:36.327Z,953.18
2018-02-12T09:10:36.326Z,953.18
2018-02-12T09:12:29.726Z,953.25
2018-02-12T09:13:29.713Z,953.23
2018-02-12T09:15:23.083Z,953.23
2018-02-12T09:16:23.084Z,953.27
2018-02-12T09:18:16.489Z,953.25
2018-02-12T09:19:16.471Z,953.25
2018-02-12T09:21:09.848Z,953.26
2018-02-12T09:22:09.849Z,953.27
2018-02-12T09:24:03.256Z,953.32
2018-02-12T09:25:03.237Z,953.31
2018-02-12T09:26:56.672Z,953.27
2018-02-12T09:27:56.615Z,953.35
2018-02-12T09:29:49.993Z,953.40
2018-02-12T09:30:49.994Z,953.41
2018-02-12T09:32:43.390Z,953.42
2018-02-12T09:33:43.371Z,953.48
2018-02-12T09:35:36.748Z,953.48
2018-02-12T09:36:36.750Z,953.50
2018-02-12T09:38:30.143Z,953.53
2018-02-12T09:39:30.126Z,953.51
2018-02-12T09:41:23.503Z,953.59
2018-02-12T09:42:23.505Z,953.66
2018-02-12T09:44:16.916Z,953.64
2018-02-12T09:45:16.900Z,953.60
2018-02-12T09:47:10.276Z,953.55
2018-02-12T09:48:10.274Z,953.62
2018-02-12T09:50:03.674Z,953.63
2018-02-12T09:51:03.662Z,953.66
2018-02-12T09:52:57.063Z,953.74
2018-02-12T09:53:57.034Z,953.80
2018-02-12T09:55:50.435Z,953.76
2018-02-12T09:56:50.415Z,953.75
2018-02-12T09:58:43.809Z,953.74
2018-02-12T09:59:43.809Z,953.71
2018-02-12T10:01:37.210Z,953.88
2018-02-12T10:02:37.190Z,953.83
2018-02-12T10:04:30.569Z,953.87
2018-02-12T10:05:30.575Z,953.83
2018-02-12T10:07:23.968Z,953.91
2018-02-12T10:08:23.954Z,953.84
2018-02-12T10:10:17.409Z,953.92
2018-02-12T10:11:17.345Z,953.92
2018-02-12T10:13:10.733Z,953.91
2018-02-12T10:14:10.724Z,953.98
2018-02-12T10:16:04.122Z,953.94
2018-02-12T10:17:04.136Z,954.00
2018-02-12T10:18:57.498Z,954.06
2018-02-12T10:19:57.502Z,954.04
2018-02-12T10:21:50.897Z,954.17
2018-02-12T10:22:50.882Z,954.07
2018-02-12T10:24:44.264Z,954.19
2018-02-12T10:25:44.270Z,954.11
2018-02-12T10:27:37.665Z,954.16
2018-02-12T10:28:37.643Z,954.19
2018-02-12T10:30:31.025Z,954.27
2018-02-12T10:31:31.027Z,954.31
2018-02-12T10:33:24.439Z,954.31
2018-02-12T10:34:24.436Z,954.29
2018-02-12T10:36:17.793Z,954.18
2018-02-12T10:37:17.798Z,954.08
2018-02-12T10:39:11.200Z,954.25
2018-02-12T10:40:11.185Z,954.46
2018-02-12T10:42:04.569Z,954.54
2018-02-12T10:43:04.574Z,954.49
2018-02-12T10:44:57.973Z,954.44
2018-02-12T10:45:57.957Z,954.63
2018-02-12T10:47:51.344Z,954.78
2018-02-12T10:48:51.346Z,954.66
2018-02-12T10:50:44.754Z,954.51
2018-02-12T10:51:44.736Z,954.67
2018-02-12T10:53:38.140Z,954.81
2018-02-12T10:54:38.125Z,954.30
2018-02-12T10:56:31.513Z,954.09
2018-02-12T10:57:31.517Z,954.12
2018-02-12T10:59:24.955Z,954.21
2018-02-12T11:00:24.917Z,954.32
2018-02-12T11:02:18.305Z,954.29
2018-02-12T11:03:18.305Z,954.24
2018-02-12T11:05:11.708Z,954.05
2018-02-12T11:06:11.752Z,954.12
2018-02-12T11:08:05.077Z,954.29
2018-02-12T11:09:05.080Z,954.43
2018-02-12T11:10:58.483Z,954.39
2018-02-12T11:11:58.468Z,954.55
2018-02-12T11:13:51.852Z,954.83
2018-02-12T11:14:51.856Z,955.01
2018-02-12T11:16:45.296Z,955.03
2018-02-12T11:17:45.299Z,955.07
2018-02-12T11:19:38.671Z,955.14
2018-02-12T11:20:38.694Z,954.97
2018-02-12T11:22:32.126Z,955.04
2018-02-12T11:23:32.070Z,954.93
2018-02-12T11:25:25.467Z,955.26
2018-02-12T11:26:25.465Z,955.17
2018-02-12T11:28:18.874Z,955.03
2018-02-12T11:29:18.888Z,954.99
2018-02-12T11:31:12.299Z,954.83
2018-02-12T11:32:12.288Z,954.74
2018-02-12T11:34:05.685Z,954.63
2018-02-12T11:35:05.710Z,954.58
2018-02-12T11:36:59.128Z,954.40
2018-02-12T11:37:59.064Z,954.32
2018-02-12T11:39:52.454Z,954.33
2018-02-12T11:40:52.473Z,954.36
2018-02-12T11:42:45.877Z,954.42
2018-02-12T11:43:45.849Z,954.41
2018-02-12T11:45:39.244Z,954.96
2018-02-12T11:46:39.261Z,955.01
2018-02-12T11:48:32.707Z,954.84
2018-02-12T11:49:32.655Z,955.05
2018-02-12T11:51:26.039Z,954.90
2018-02-12T11:52:26.048Z,954.68
2018-02-12T11:54:19.449Z,954.61
2018-02-12T11:55:19.456Z,954.69
2018-02-12T11:57:12.822Z,954.71
2018-02-12T11:58:12.823Z,954.64
2018-02-12T12:00:06.234Z,954.61
2018-02-12T12:01:06.216Z,954.47
2018-02-12T12:02:59.603Z,954.99
2018-02-12T12:03:59.618Z,955.04
2018-02-12T12:05:53.012Z,954.93
2018-02-12T12:06:53.022Z,954.48
2018-02-12T12:08:46.414Z,954.22
2018-02-12T12:09:46.397Z,954.24
2018-02-12T12:11:39.786Z,954.45
2018-02-12T12:12:39.789Z,954.90
2018-02-12T12:14:33.194Z,954.12
2018-02-12T12:15:33.201Z,954.13
2018-02-12T12:17:26.569Z,954.14
2018-02-12T12:18:26.582Z,954.15
2018-02-12T12:20:19.985Z,954.32
2018-02-12T12:21:19.975Z,954.42
2018-02-12T12:23:13.351Z,954.52
2018-02-12T12:24:13.356Z,954.92
2018-02-12T12:26:06.772Z,954.59
2018-02-12T12:27:06.755Z,955.15
2018-02-12T12:29:00.142Z,955.02
2018-02-12T12:30:00.146Z,954.65
2018-02-12T12:31:53.569Z,955.08
2018-02-12T12:32:53.549Z,955.09
2018-02-12T12:34:46.963Z,955.28
2018-02-12T12:35:46.947Z,955.35
2018-02-12T12:37:40.348Z,955.21
2018-02-12T12:38:40.337Z,954.66
2018-02-12T12:40:33.730Z,954.67
2018-02-12T12:41:33.743Z,954.94
2018-02-12T12:43:27.138Z,954.89
2018-02-12T12:44:27.122Z,954.72
2018-02-12T12:46:20.531Z,954.62
2018-02-12T12:47:22.172Z,954.75
2018-02-12T12:49:13.922Z,954.60
2018-02-12T12:50:13.951Z,954.40
2018-02-12T12:52:07.321Z,954.54
2018-02-12T12:53:07.317Z,954.81
2018-02-12T12:55:00.721Z,955.02
2018-02-12T12:56:00.699Z,954.86
2018-02-12T12:57:54.121Z,954.55
2018-02-12T12:58:54.115Z,954.54
2018-02-12T13:00:47.519Z,954.60
2018-02-12T13:01:47.520Z,954.68
2018-02-12T13:03:41.978Z,954.79
2018-02-12T13:04:41.976Z,954.87
2018-02-12T13:06:35.329Z,955.04
2018-02-12T13:07:35.333Z,955.02
2018-02-12T13:09:28.705Z,954.90
2018-02-12T13:10:28.747Z,954.80
2018-02-12T13:12:22.146Z,954.77
2018-02-12T13:13:22.174Z,954.93
2018-02-12T13:15:15.555Z,954.80
2018-02-12T13:16:15.556Z,954.70
2018-02-12T13:18:08.929Z,954.48
2018-02-12T13:19:08.925Z,954.51
2018-02-12T13:21:02.417Z,954.53
2018-02-12T13:22:02.374Z,954.55
2018-02-12T13:23:55.740Z,954.54
2018-02-12T13:24:55.824Z,954.47
2018-02-12T13:26:49.172Z,954.30
2018-02-12T13:27:49.143Z,954.38
2018-02-12T13:29:42.505Z,954.30
2018-02-12T13:30:42.511Z,954.32
2018-02-12T13:32:35.935Z,954.38
2018-02-12T13:33:35.915Z,954.36
2018-02-12T13:35:29.299Z,954.36
2018-02-12T13:36:29.296Z,954.43
2018-02-12T13:38:22.733Z,954.36
2018-02-12T13:39:22.750Z,954.38
2018-02-12T13:41:16.107Z,954.58
2018-02-12T13:42:16.117Z,954.81
2018-02-12T13:44:09.548Z,954.81
2018-02-12T13:45:09.499Z,954.34
2018-02-12T13:47:02.931Z,954.36
2018-02-12T13:48:02.933Z,954.24
2018-02-12T13:49:57.363Z,954.24
2018-02-12T13:50:57.326Z,954.27
2018-02-12T13:52:50.700Z,954.05
2018-02-12T13:53:50.734Z,954.11
2018-02-12T13:55:44.123Z,954.13
2018-02-12T13:56:44.122Z,954.22
2018-02-12T13:58:37.517Z,954.09
2018-02-12T13:59:37.497Z,954.05
2018-02-12T14:01:30.877Z,954.10
2018-02-12T14:02:30.924Z,954.08
2018-02-12T14:04:24.314Z,954.09
2018-02-12T14:05:24.366Z,954.11
2018-02-12T14:07:18.681Z,954.19
2018-02-12T14:08:18.701Z,954.15
2018-02-12T14:10:12.075Z,954.15
2018-02-12T14:11:12.057Z,954.20
2018-02-12T14:13:05.513Z,954.20
2018-02-12T14:14:05.515Z,954.20
2018-02-12T14:15:58.869Z,954.22
2018-02-12T14:16:58.930Z,954.28
2018-02-12T14:18:52.316Z,954.41
2018-02-12T14:19:52.295Z,954.37
2018-02-12T14:21:45.650Z,954.25
2018-02-12T14:22:45.686Z,954.24
2018-02-12T14:24:39.081Z,954.40
2018-02-12T14:25:39.101Z,954.34
2018-02-12T14:27:32.419Z,954.37
2018-02-12T14:28:32.456Z,954.24
2018-02-12T14:30:25.908Z,954.22
2018-02-12T14:31:25.843Z,954.23
2018-02-12T14:33:20.346Z,954.28
2018-02-12T14:34:20.293Z,954.30
2018-02-12T14:36:13.714Z,954.41
2018-02-12T14:37:13.716Z,954.49
2018-02-12T14:39:07.121Z,954.86
2018-02-12T14:40:07.069Z,954.80
2018-02-12T14:42:00.494Z,954.40
2018-02-12T14:43:00.487Z,954.38
2018-02-12T14:44:53.858Z,954.52
2018-02-12T14:45:53.841Z,954.57
2018-02-12T14:47:47.226Z,954.54
2018-02-12T14:48:47.223Z,954.61
2018-02-12T14:50:40.630Z,954.56
2018-02-12T14:51:40.612Z,954.44
2018-02-12T14:53:33.997Z,954.45
2018-02-12T14:54:33.999Z,954.40
2018-02-12T14:56:27.402Z,954.37
2018-02-12T14:57:27.391Z,954.36
2018-02-12T14:59:20.764Z,954.34
2018-02-12T15:00:20.767Z,954.35
2018-02-12T15:02:14.172Z,954.33
2018-02-12T15:03:14.151Z,954.44
2018-02-12T15:05:07.531Z,954.42
2018-02-12T15:06:07.536Z,954.43
2018-02-12T15:08:00.935Z,954.45
2018-02-12T15:09:00.921Z,954.44
2018-02-12T15:10:54.346Z,954.48
2018-02-12T15:11:54.321Z,954.49
2018-02-12T15:13:47.704Z,954.51
2018-02-12T15:14:47.707Z,954.46
2018-02-12T15:16:41.113Z,954.53
2018-02-12T15:17:41.088Z,954.55
2018-02-12T15:19:34.472Z,954.58
2018-02-12T15:20:34.475Z,954.62
2018-02-12T15:22:27.872Z,954.62
2018-02-12T15:23:27.855Z,954.67
2018-02-12T15:25:21.236Z,954.69
2018-02-12T15:26:21.237Z,954.71
2018-02-12T15:28:14.642Z,954.70
2018-02-12T15:29:14.623Z,954.75
2018-02-12T15:31:08.027Z,954.83
2018-02-12T15:32:08.013Z,954.89
2018-02-12T15:34:01.392Z,954.87
2018-02-12T15:35:01.390Z,954.90
2018-02-12T15:36:54.799Z,954.89
2018-02-12T15:37:54.779Z,954.94
2018-02-12T15:39:48.168Z,954.90
2018-02-12T15:40:48.157Z,954.93
2018-02-12T15:42:41.560Z,954.92
2018-02-12T15:43:41.539Z,954.95
2018-02-12T15:45:34.925Z,954.91
2018-02-12T15:46:34.922Z,954.92
2018-02-12T15:48:28.365Z,954.92
2018-02-12T15:49:28.326Z,954.96
2018-02-12T15:51:21.705Z,954.96
2018-02-12T15:52:21.705Z,954.96
2018-02-12T15:54:15.106Z,954.97
2018-02-12T15:55:15.090Z,954.98
2018-02-12T15:57:08.468Z,954.90
2018-02-12T15:58:08.467Z,954.97
2018-02-12T16:00:01.870Z,954.98
2018-02-12T16:01:01.853Z,955.01
2018-02-12T16:02:55.231Z,954.99
2018-02-12T16:03:55.228Z,955.02
2018-02-12T16:05:48.628Z,955.05
2018-02-12T16:06:48.614Z,955.06
2018-02-12T16:08:42.005Z,955.05
2018-02-12T16:09:41.985Z,955.04
2018-02-12T16:11:35.367Z,955.10
2018-02-12T16:12:35.369Z,955.08
2018-02-12T16:14:28.775Z,955.07
2018-02-12T16:15:28.750Z,955.08
2018-02-12T16:17:22.126Z,955.11
2018-02-12T16:18:22.125Z,955.11
2018-02-12T16:20:15.525Z,955.14
2018-02-12T16:21:15.507Z,955.17
2018-02-12T16:23:08.892Z,955.11
2018-02-12T16:24:08.885Z,955.19
2018-02-12T16:26:02.283Z,955.15
2018-02-12T16:27:02.264Z,955.19
2018-02-12T16:28:55.669Z,955.22
2018-02-12T16:29:55.648Z,955.26
2018-02-12T16:31:49.026Z,955.24
2018-02-12T16:32:49.027Z,955.29
2018-02-12T16:34:42.425Z,955.29
2018-02-12T16:35:42.403Z,955.30
2018-02-12T16:37:35.791Z,955.31
2018-02-12T16:38:35.783Z,955.35
2018-02-12T16:40:29.181Z,955.37
2018-02-12T16:41:29.162Z,955.41
2018-02-12T16:43:22.541Z,955.41
2018-02-12T16:44:22.542Z,955.47
2018-02-12T16:46:15.939Z,955.52
2018-02-12T16:47:15.921Z,955.47
2018-02-12T16:49:09.320Z,955.52
2018-02-12T16:50:09.308Z,955.55
2018-02-12T16:52:02.674Z,955.57
2018-02-12T16:53:02.686Z,955.55
2018-02-12T16:54:56.072Z,955.56
2018-02-12T16:55:56.052Z,955.60
2018-02-12T16:57:49.432Z,955.61
2018-02-12T16:58:49.431Z,955.65
2018-02-12T17:00:42.847Z,955.66
2018-02-12T17:01:42.822Z,955.72
2018-02-12T17:03:36.265Z,955.75
2018-02-12T17:04:36.274Z,955.78
2018-02-12T17:06:29.664Z,955.80
2018-02-12T17:07:29.645Z,955.81
2018-02-12T17:09:23.042Z,955.85
2018-02-12T17:10:23.026Z,955.83
2018-02-12T17:12:16.402Z,955.85
2018-02-12T17:13:16.403Z,955.86
2018-02-12T17:15:09.804Z,955.86
2018-02-12T17:16:09.784Z,955.85
2018-02-12T17:18:03.162Z,955.95
2018-02-12T17:19:03.162Z,955.95
2018-02-12T17:20:56.572Z,956.03
2018-02-12T17:21:56.548Z,956.03
2018-02-12T17:23:49.927Z,956.13
2018-02-12T17:24:49.927Z,956.12
2018-02-12T17:26:44.503Z,956.12
2018-02-12T17:27:44.353Z,956.14
2018-02-12T17:29:37.769Z,956.07
2018-02-12T17:30:37.726Z,956.03
2018-02-12T17:32:31.134Z,956.06
2018-02-12T17:33:31.183Z,956.06
2018-02-12T17:35:24.511Z,956.02
2018-02-12T17:36:24.474Z,956.04
2018-02-12T17:38:17.827Z,956.08
2018-02-12T17:39:17.861Z,956.04
2018-02-12T17:41:12.260Z,956.06
2018-02-12T17:42:12.436Z,956.08
2018-02-12T17:44:05.606Z,956.07
2018-02-12T17:45:05.648Z,956.09
2018-02-12T17:46:59.001Z,956.17
2018-02-12T17:47:59.044Z,956.20
2018-02-12T17:49:52.426Z,956.21
2018-02-12T17:50:52.368Z,956.19
2018-02-12T17:52:45.800Z,956.19
2018-02-12T17:53:45.771Z,956.22
2018-02-12T17:55:39.172Z,956.25
2018-02-12T17:56:39.206Z,956.27
2018-02-12T17:58:33.591Z,956.29
2018-02-12T17:59:33.548Z,956.29
2018-02-12T18:01:27.895Z,956.30